createdAt,value
2018-04-22T00:01:55.369Z,80.40
2018-04-22T00:04:22.817Z,80.50
2018-04-22T00:06:50.252Z,80.60
2018-04-22T00:09:17.696Z,80.70
2018-04-22T00:11:45.133Z,80.70
2018-04-22T00:14:12.578Z,80.80
2018-04-22T00:16:40.406Z,81.10
2018-04-22T00:19:07.852Z,81.10
2018-04-22T00:21:35.304Z,81.10
2018-04-22T00:24:02.746Z,81.20
2018-04-22T00:26:30.187Z,81.30
2018-04-22T00:28:57.656Z,81.30
2018-04-22T00:31:25.084Z,81.40
2018-04-22T00:33:52.924Z,81.50
2018-04-22T00:36:20.363Z,81.50
2018-04-22T00:38:47.806Z,81.70
2018-04-22T00:41:16.107Z,81.80
2018-04-22T00:43:43.563Z,81.80
2018-04-22T00:46:11.019Z,81.90
2018-04-22T00:48:38.464Z,81.90
2018-04-22T00:51:05.943Z,82.10
2018-04-22T00:53:45.095Z,82.20
2018-04-22T00:56:12.532Z,82.10
2018-04-22T00:58:39.966Z,82.30
2018-04-22T01:01:07.409Z,82.40
2018-04-22T01:03:34.851Z,82.30
2018-04-22T01:06:02.278Z,82.50
2018-04-22T01:08:30.114Z,82.50
2018-04-22T01:10:57.558Z,82.50
2018-04-22T01:13:25.010Z,82.70
2018-04-22T01:15:52.457Z,83.00
2018-04-22T01:18:19.891Z,82.90
2018-04-22T01:20:47.323Z,83.10
2018-04-22T01:23:15.149Z,83.10
2018-04-22T01:25:42.595Z,83.10
2018-04-22T01:28:10.031Z,83.20
2018-04-22T01:30:37.471Z,83.30
2018-04-22T01:33:05.298Z,83.40
2018-04-22T01:35:32.750Z,83.40
2018-04-22T01:38:00.193Z,83.50
2018-04-22T01:40:27.645Z,83.60
2018-04-22T01:42:55.075Z,83.50
2018-04-22T01:45:22.511Z,83.60
2018-04-22T01:47:49.942Z,83.70
2018-04-22T01:50:17.431Z,83.80
2018-04-22T01:52:45.264Z,83.70
2018-04-22T01:55:12.703Z,83.70
2018-04-22T01:57:40.147Z,83.80
2018-04-22T02:00:07.590Z,83.70
2018-04-22T02:02:35.028Z,83.70
2018-04-22T02:05:02.473Z,83.90
2018-04-22T02:07:30.299Z,83.80
2018-04-22T02:09:57.760Z,83.80
2018-04-22T02:12:25.196Z,83.80
2018-04-22T02:14:52.641Z,83.90
2018-04-22T02:17:20.074Z,84.00
2018-04-22T02:19:47.514Z,84.10
2018-04-22T02:22:14.951Z,84.00
2018-04-22T02:24:42.405Z,84.10
2018-04-22T02:27:09.888Z,84.20
2018-04-22T02:29:37.308Z,84.30
2018-04-22T02:32:04.759Z,84.60
2018-04-22T02:34:32.201Z,84.70
2018-04-22T02:36:59.634Z,84.70
2018-04-22T02:39:27.079Z,84.90
2018-04-22T02:41:54.904Z,85.00
2018-04-22T02:44:22.354Z,85.00
2018-04-22T02:46:49.798Z,85.00
2018-04-22T02:49:17.235Z,85.10
2018-04-22T02:51:44.672Z,85.30
2018-04-22T02:54:12.108Z,85.30
2018-04-22T02:56:39.949Z,85.40
2018-04-22T02:59:07.395Z,85.40
2018-04-22T03:01:34.824Z,85.60
2018-04-22T03:04:02.281Z,85.50
2018-04-22T03:06:29.714Z,85.50
2018-04-22T03:08:57.546Z,85.40
2018-04-22T03:11:24.983Z,85.40
2018-04-22T03:13:52.425Z,85.50
2018-04-22T03:16:19.872Z,85.70
2018-04-22T03:18:47.303Z,85.80
2018-04-22T03:21:15.138Z,85.90
2018-04-22T03:23:42.585Z,85.80
2018-04-22T03:26:10.027Z,86.00
2018-04-22T03:28:37.468Z,86.00
2018-04-22T03:31:04.916Z,86.00
2018-04-22T03:33:32.366Z,86.10
2018-04-22T03:35:59.817Z,86.30
2018-04-22T03:38:27.639Z,86.30
2018-04-22T03:40:55.087Z,86.30
2018-04-22T03:43:22.533Z,86.40
2018-04-22T03:45:49.979Z,86.60
2018-04-22T03:48:17.408Z,86.70
2018-04-22T03:50:44.857Z,86.70
2018-04-22T03:53:12.688Z,86.90
2018-04-22T03:55:40.137Z,86.90
2018-04-22T03:58:07.586Z,87.10
2018-04-22T04:00:35.032Z,87.20
2018-04-22T04:03:02.486Z,87.20
2018-04-22T04:05:29.927Z,87.40
2018-04-22T04:07:57.363Z,87.40
2018-04-22T04:10:25.215Z,87.60
2018-04-22T04:12:53.056Z,87.70
2018-04-22T04:15:20.497Z,87.70
2018-04-22T04:21:16.696Z,87.90
2018-04-22T04:27:07.667Z,87.90
2018-04-22T04:29:35.122Z,88.10
2018-04-22T04:32:02.559Z,88.10
2018-04-22T04:34:29.988Z,88.20
2018-04-22T04:36:57.440Z,88.00
2018-04-22T04:39:24.871Z,88.00
2018-04-22T04:41:52.325Z,88.20
2018-04-22T04:44:19.759Z,88.20
2018-04-22T04:46:47.206Z,88.20
2018-04-22T04:49:14.628Z,88.20
2018-04-22T04:51:42.475Z,88.30
2018-04-22T04:54:09.919Z,88.30
2018-04-22T04:56:37.367Z,88.10
2018-04-22T04:59:04.803Z,88.10
2018-04-22T05:01:32.264Z,88.20
2018-04-22T05:04:01.939Z,88.10
2018-04-22T05:06:30.432Z,88.00
2018-04-22T05:09:01.068Z,87.90
2018-04-22T05:11:35.292Z,87.70
2018-04-22T05:14:02.893Z,87.80
2018-04-22T05:16:32.895Z,87.90
2018-04-22T05:19:05.706Z,87.90
2018-04-22T05:21:34.858Z,87.80
2018-04-22T05:24:03.345Z,87.60
2018-04-22T05:26:32.173Z,87.50
2018-04-22T05:29:00.707Z,87.40
2018-04-22T05:31:29.046Z,87.20
2018-04-22T05:33:58.728Z,87.50
2018-04-22T05:36:27.401Z,87.50
2018-04-22T05:38:54.879Z,87.50
2018-04-22T05:41:24.229Z,87.50
2018-04-22T05:43:52.465Z,87.50
2018-04-22T05:46:20.127Z,87.50
2018-04-22T05:48:49.328Z,87.40
2018-04-22T05:51:24.217Z,87.30
2018-04-22T05:53:51.762Z,87.30
2018-04-22T05:56:19.961Z,87.10
2018-04-22T05:58:48.880Z,87.00
2018-04-22T06:01:20.383Z,86.80
2018-04-22T06:06:23.236Z,86.30
2018-04-22T06:08:50.671Z,86.10
2018-04-22T06:11:18.111Z,86.20
2018-04-22T06:13:45.605Z,86.20
2018-04-22T06:16:13.050Z,86.20
2018-04-22T06:18:40.480Z,86.00
2018-04-22T06:21:07.940Z,85.90
2018-04-22T06:23:35.379Z,85.80
2018-04-22T06:26:02.835Z,85.60
2018-04-22T06:28:30.277Z,85.50
2018-04-22T06:30:57.728Z,85.50
2018-04-22T06:33:25.155Z,85.20
2018-04-22T06:35:53.020Z,85.10
2018-04-22T06:38:20.455Z,85.10
2018-04-22T06:40:47.907Z,84.80
2018-04-22T06:43:15.347Z,84.60
2018-04-22T06:45:42.790Z,84.40
2018-04-22T06:48:10.254Z,84.50
2018-04-22T06:50:37.696Z,84.60
2018-04-22T06:53:05.122Z,84.10
2018-04-22T06:55:32.568Z,83.80
2018-04-22T06:57:59.995Z,83.70
2018-04-22T07:00:27.437Z,83.50
2018-04-22T07:02:54.867Z,83.30
2018-04-22T07:05:22.325Z,83.40
2018-04-22T07:07:50.131Z,83.20
2018-04-22T07:12:51.818Z,83.40
2018-04-22T07:15:19.267Z,83.40
2018-04-22T07:17:46.699Z,82.70
2018-04-22T07:20:14.128Z,82.40
2018-04-22T07:22:41.563Z,81.90
2018-04-22T07:25:09.013Z,81.80
2018-04-22T07:27:36.443Z,81.30
2018-04-22T07:30:03.883Z,81.40
2018-04-22T07:32:31.323Z,81.30
2018-04-22T07:34:58.751Z,81.40
2018-04-22T07:37:26.594Z,81.40
2018-04-22T07:39:54.023Z,81.40
2018-04-22T07:42:22.452Z,81.20
2018-04-22T07:44:49.859Z,81.20
2018-04-22T07:47:17.299Z,81.00
2018-04-22T07:49:45.603Z,80.60
2018-04-22T07:52:13.051Z,80.80
2018-04-22T07:54:41.794Z,80.80
2018-04-22T07:57:09.231Z,80.50
2018-04-22T07:59:36.667Z,80.30
2018-04-22T08:02:04.097Z,80.70
2018-04-22T08:04:31.553Z,80.50
2018-04-22T08:06:58.983Z,80.00
2018-04-22T08:09:26.424Z,79.90
2018-04-22T08:11:53.848Z,79.80
2018-04-22T08:14:21.275Z,79.70
2018-04-22T08:16:48.717Z,79.80
2018-04-22T08:19:16.142Z,79.80
2018-04-22T08:21:43.972Z,79.70
2018-04-22T08:24:11.396Z,79.70
2018-04-22T08:26:38.831Z,79.10
2018-04-22T08:29:06.675Z,79.30
2018-04-22T08:31:34.119Z,79.30
2018-04-22T08:34:01.776Z,79.50
2018-04-22T08:36:29.190Z,79.00
2018-04-22T08:38:56.611Z,78.80
2018-04-22T08:41:24.046Z,78.90
2018-04-22T08:43:51.475Z,78.70
2018-04-22T08:46:18.926Z,79.10
2018-04-22T08:48:46.350Z,78.90
2018-04-22T08:51:14.188Z,78.40
2018-04-22T08:53:41.622Z,78.40
2018-04-22T08:56:09.081Z,77.70
2018-04-22T08:58:36.514Z,78.00
2018-04-22T09:01:03.943Z,77.60
2018-04-22T09:03:31.379Z,78.10
2018-04-22T09:05:58.819Z,78.20
2018-04-22T09:08:26.239Z,77.80
2018-04-22T09:10:53.727Z,78.00
2018-04-22T09:13:21.506Z,77.40
2018-04-22T09:15:48.943Z,77.40
2018-04-22T09:18:16.371Z,77.40
2018-04-22T09:20:43.819Z,77.70
2018-04-22T09:23:11.248Z,77.40
2018-04-22T09:25:39.590Z,76.60
2018-04-22T09:28:07.020Z,75.30
2018-04-22T09:30:34.532Z,75.70
2018-04-22T09:33:01.962Z,73.60
2018-04-22T09:35:29.404Z,74.70
2018-04-22T09:37:56.852Z,74.40
2018-04-22T09:40:24.276Z,75.00
2018-04-22T13:08:44.820Z,66.40
2018-04-22T13:11:12.637Z,66.00
2018-04-22T13:13:40.067Z,66.00
2018-04-22T13:16:07.498Z,64.90
2018-04-22T13:18:35.328Z,64.10
2018-04-22T13:21:02.911Z,64.10
2018-04-22T13:23:30.342Z,64.90
2018-04-22T13:25:57.794Z,64.50
2018-04-22T13:28:25.246Z,64.10
2018-04-22T13:30:52.675Z,64.70
2018-04-22T13:33:20.127Z,63.00
2018-04-22T13:35:47.581Z,63.80
2018-04-22T13:38:15.011Z,64.40
2018-04-22T13:40:42.423Z,64.40
2018-04-22T13:43:09.869Z,64.90
2018-04-22T13:45:37.324Z,63.50
2018-04-22T13:48:04.739Z,63.50
2018-04-22T13:50:32.559Z,63.60
2018-04-22T13:52:59.997Z,63.60
2018-04-22T13:55:27.419Z,63.20
2018-04-22T13:57:54.889Z,62.80
2018-04-22T14:00:22.705Z,63.60
2018-04-22T14:02:50.139Z,63.60
2018-04-22T14:05:17.567Z,62.70
2018-04-22T14:07:46.190Z,63.80
2018-04-22T14:13:13.391Z,63.30
2018-04-22T14:18:33.894Z,62.80
2018-04-22T14:21:01.324Z,63.70
2018-04-22T14:23:28.767Z,63.70
2018-04-22T14:25:56.211Z,63.00
2018-04-22T14:28:23.653Z,64.00
2018-04-22T14:30:52.594Z,63.70
2018-04-22T14:33:20.022Z,63.70
2018-04-22T14:42:34.979Z,64.30
2018-04-22T14:45:23.810Z,64.10
2018-04-22T15:39:16.351Z,63.80
2018-04-22T15:44:41.507Z,64.30
2018-04-22T15:50:09.116Z,63.70
2018-04-22T15:55:24.403Z,63.70
2018-04-22T15:57:51.848Z,63.00
2018-04-22T16:00:19.279Z,63.30
2018-04-22T16:02:46.754Z,64.30
2018-04-22T16:05:14.198Z,63.50
2018-04-22T16:07:41.655Z,64.40
2018-04-22T16:10:09.082Z,64.40
2018-04-22T16:12:36.531Z,64.20
2018-04-22T16:15:03.947Z,63.90
2018-04-22T16:17:31.377Z,64.80
2018-04-22T16:19:58.805Z,64.50
2018-04-22T16:22:26.672Z,64.20
2018-04-22T16:24:54.527Z,62.80
2018-04-22T16:27:21.950Z,62.80
2018-04-22T16:29:49.417Z,63.40
2018-04-22T16:32:16.835Z,63.20
2018-04-22T16:34:44.286Z,61.90
2018-04-22T16:37:11.723Z,62.00
2018-04-22T16:39:39.203Z,61.90
2018-04-22T16:42:06.656Z,62.50
2018-04-22T16:44:34.109Z,62.50
2018-04-22T16:47:01.591Z,62.60
2018-04-22T16:49:29.037Z,61.70
2018-04-22T16:51:56.467Z,62.60
2018-04-22T16:54:25.119Z,63.30
2018-04-22T16:56:52.553Z,63.30
2018-04-22T16:59:19.994Z,63.10
2018-04-22T17:02:05.235Z,63.50
2018-04-22T17:04:32.686Z,63.70
2018-04-22T17:07:00.516Z,63.10
2018-04-22T17:09:27.947Z,63.10
2018-04-22T17:11:55.371Z,63.30
2018-04-22T17:14:22.813Z,63.20
2018-04-22T17:16:50.232Z,63.60
2018-04-22T17:19:17.667Z,64.30
2018-04-22T17:21:45.850Z,64.60
2018-04-22T17:24:13.484Z,64.60
2018-04-22T17:26:41.138Z,64.50
2018-04-22T17:29:08.563Z,64.60
2018-04-22T17:31:36.007Z,64.70
2018-04-22T17:34:03.700Z,64.30
2018-04-22T17:36:31.241Z,64.20
2018-04-22T17:38:58.659Z,64.50
2018-04-22T17:41:26.089Z,63.40
2018-04-22T17:43:53.512Z,64.10
2018-04-22T17:46:21.032Z,64.80
2018-04-22T17:48:48.480Z,64.60
2018-04-22T17:51:15.907Z,64.30
2018-04-22T17:53:43.343Z,65.30
2018-04-22T17:56:10.781Z,65.60
2018-04-22T17:58:38.237Z,65.50
2018-04-22T18:01:05.671Z,65.60
2018-04-22T18:03:33.148Z,65.80
2018-04-22T18:06:00.572Z,66.30
2018-04-22T18:08:28.011Z,66.50
2018-04-22T18:10:55.435Z,66.70
2018-04-22T18:13:23.274Z,67.50
2018-04-22T18:15:50.701Z,67.50
2018-04-22T18:18:18.139Z,67.30
2018-04-22T18:20:45.569Z,67.30
2018-04-22T18:26:11.621Z,67.50
2018-04-22T18:28:39.044Z,67.60
2018-04-22T18:31:06.490Z,68.10
2018-04-22T18:33:33.924Z,68.20
2018-04-22T18:36:01.343Z,68.00
2018-04-22T18:38:29.193Z,68.70
2018-04-22T18:40:56.590Z,68.70
2018-04-22T18:43:24.027Z,68.40
2018-04-22T18:45:51.454Z,68.90
2018-04-22T18:48:18.978Z,69.10
2018-04-22T18:50:46.379Z,68.70
2018-04-22T18:53:13.811Z,69.40
2018-04-22T18:55:41.235Z,69.50
2018-04-22T18:58:08.686Z,69.30
2018-04-22T19:00:36.516Z,69.70
2018-04-22T19:03:03.935Z,69.70
2018-04-22T19:05:31.360Z,70.50
2018-04-22T19:11:06.195Z,69.80
2018-04-22T19:13:33.633Z,70.30
2018-04-22T19:16:01.056Z,70.00
2018-04-22T19:18:28.494Z,69.70
2018-04-22T19:20:55.993Z,70.20
2018-04-22T19:23:23.408Z,69.50
2018-04-22T19:25:50.855Z,70.20
2018-04-22T19:28:18.334Z,69.80
2018-04-22T19:30:45.728Z,70.30
2018-04-22T19:33:13.160Z,69.70
2018-04-22T19:35:40.590Z,70.00
2018-04-22T19:38:08.016Z,70.00
2018-04-22T19:40:35.487Z,70.70
2018-04-22T19:43:02.939Z,70.90
2018-04-22T19:45:30.493Z,70.70
2018-04-22T19:47:58.295Z,70.40
2018-04-22T19:50:25.731Z,70.40
2018-04-22T19:52:53.174Z,70.80
2018-04-22T19:55:21.006Z,70.80
2018-04-22T19:57:48.461Z,70.80
2018-04-22T20:00:15.949Z,70.70
2018-04-22T20:02:43.372Z,70.90
2018-04-22T20:05:10.811Z,71.00
2018-04-22T20:07:44.424Z,71.30
2018-04-22T20:10:19.386Z,71.40
2018-04-22T20:12:50.541Z,71.60
2018-04-22T20:15:25.515Z,71.90
2018-04-22T20:18:00.947Z,71.90
2018-04-22T20:20:32.036Z,71.50
2018-04-22T20:23:09.907Z,71.80
2018-04-22T20:25:39.602Z,71.90
2018-04-22T20:28:08.604Z,72.10
2018-04-22T20:30:42.644Z,72.20
2018-04-22T20:33:11.639Z,72.20
2018-04-22T20:38:18.392Z,72.60
2018-04-22T20:40:49.950Z,72.80
2018-04-22T20:43:24.052Z,73.10
2018-04-22T20:46:05.057Z,74.30
2018-04-22T20:48:52.268Z,74.80
2018-04-22T20:51:23.531Z,75.30
2018-04-22T20:53:56.476Z,75.60
2018-04-22T20:56:34.756Z,75.80
2018-04-22T20:59:09.200Z,75.50
2018-04-22T21:01:46.149Z,75.90
2018-04-22T21:04:21.003Z,76.20
2018-04-22T21:07:02.077Z,76.20
2018-04-22T21:12:21.072Z,76.20
2018-04-22T21:14:49.429Z,76.20
2018-04-22T21:17:23.294Z,76.40
2018-04-22T21:19:53.632Z,76.00
2018-04-22T21:22:23.092Z,76.10
2018-04-22T21:25:07.811Z,76.10
2018-04-22T21:27:40.635Z,76.70
2018-04-22T21:30:12.184Z,76.40
2018-04-22T21:32:41.303Z,76.30
2018-04-22T21:35:09.661Z,76.40
2018-04-22T21:37:42.313Z,76.80
2018-04-22T21:40:18.734Z,76.70
2018-04-22T21:54:00.887Z,76.90
2018-04-22T21:56:35.972Z,77.30
2018-04-22T22:01:52.534Z,78.30
2018-04-22T22:04:23.532Z,78.70
2018-04-22T22:06:59.525Z,79.40
2018-04-22T22:09:27.357Z,79.50
2018-04-22T22:11:57.921Z,79.50
2018-04-22T22:14:26.166Z,79.30
2018-04-22T22:16:54.812Z,79.30
2018-04-22T22:19:24.623Z,79.10
2018-04-22T22:21:52.518Z,79.10
2018-04-22T22:29:54.554Z,79.20
2018-04-22T22:32:25.697Z,79.20
2018-04-22T22:34:56.982Z,78.90
2018-04-22T22:37:27.496Z,78.90
2018-04-22T22:45:15.918Z,79.40
2018-04-22T22:47:53.389Z,79.60
2018-04-22T22:50:37.901Z,79.80
2018-04-22T22:59:11.517Z,79.70
2018-04-22T23:01:51.667Z,80.00
2018-04-22T23:08:07.215Z,80.30
2018-04-22T23:16:34.322Z,80.60
2018-04-22T23:19:13.338Z,80.80
2018-04-22T23:24:36.468Z,81.30
2018-04-22T23:29:56.512Z,81.80
2018-04-22T23:32:27.839Z,81.80
2018-04-22T23:34:59.907Z,83.40
2018-04-22T23:37:31.804Z,84.10
2018-04-22T23:39:59.247Z,84.10
2018-04-22T23:42:26.670Z,84.40
2018-04-22T23:44:54.147Z,84.00
2018-04-22T23:47:21.607Z,83.90
2018-04-22T23:49:49.058Z,84.40
2018-04-22T23:52:16.542Z,84.50
2018-04-22T23:54:43.921Z,84.50
2018-04-22T23:57:11.376Z,84.50
2018-04-22T23:59:38.816Z,84.40
